Time;durP1;ratioP1;P1;durP2;ratioP2;P2;SDS_P1;SDS_P2;PMS_P1;PMS_P2;Temp;Humidity;BMP_temperature;BMP_pressure;BME280_temperature;BME280_humidity;BME280_pressure;Samples;Min_cycle;Max_cycle;Signal;HPM_P1;HPM_P2
2022/04/08 00:01:49;;;;;;;;;;;;;;;;;;4984731;28;19918;-58
2022/04/08 00:04:14;;;;;;;;;;;;;;;;;;4990995;28;19960;-58
2022/04/08 00:06:39;;;;;;;;;;;;;;;;;;4988878;28;20008;-58
2022/04/08 00:09:04;;;;;;;;;;;;;;;;;;4976291;28;19918;-58
2022/04/08 00:11:30;;;;;;;;;;;;;;;;;;4982532;28;20374;-58
2022/04/08 00:13:55;;;;;;;;;;;;;;;;;;4985723;28;20364;-58
2022/04/08 00:16:20;;;;;;;;;;;;;;;;;;4983501;28;19951;-58
2022/04/08 00:18:46;;;;;;;;;;;;;;;;;;4987774;28;19936;-57
2022/04/08 00:21:12;;;;;;;;;;;;;;;;;;4983214;28;19968;-58
2022/04/08 00:23:37;;;;;;;;;;;;;;;;;;4991676;28;19917;-58
2022/04/08 00:26:03;;;;;;;;;;;;;;;;;;4992809;28;19917;-58
2022/04/08 00:28:28;;;;;;;;;;;;;;;;;;4990109;28;20322;-57
2022/04/08 00:30:53;;;;;;;;;;;;;;;;;;4985610;28;19925;-58
2022/04/08 00:33:19;;;;;;;;;;;;;;;;;;4983362;28;19963;-58
2022/04/08 00:35:44;;;;;;;;;;;;;;;;;;4980832;28;20291;-58
2022/04/08 00:38:09;;;;;;;;;;;;;;;;;;4980950;28;19914;-57
2022/04/08 00:40:35;;;;;;;;;;;;;;;;;;4986017;28;19914;-58
2022/04/08 00:43:13;;;;;;;;;;;;;;;;;;4983468;28;20387;-58
2022/04/08 00:45:39;;;;;;;;;;;;;;;;;;4983411;28;19918;-57
2022/04/08 00:48:07;;;;;;;;;;;;;;;;;;4982138;28;19913;-58
2022/04/08 00:50:33;;;;;;;;;;;;;;;;;;4985619;28;19921;-58
2022/04/08 00:52:59;;;;;;;;;;;;;;;;;;4989364;28;19910;-58
2022/04/08 00:55:24;;;;;;;;;;;;;;;;;;4985420;28;20265;-58
2022/04/08 00:57:50;;;;;;;;;;;;;;;;;;4984957;28;20440;-57
2022/04/08 01:00:15;;;;;;;;;;;;;;;;;;4980611;28;19974;-57
2022/04/08 01:02:40;;;;;;;;;;;;;;;;;;4988899;28;19944;-58
2022/04/08 01:05:06;;;;;;;;;;;;;;;;;;4990397;28;19909;-58
2022/04/08 01:07:32;;;;;;;;;;;;;;;;;;4977725;28;20343;-58
2022/04/08 01:09:58;;;;;;;;;;;;;;;;;;4982549;28;19949;-58
2022/04/08 01:12:23;;;;;;;;;;;;;;;;;;4988828;28;19920;-58
2022/04/08 01:14:55;;;;;;;;;;;;;;;;;;4990396;28;19996;-58
2022/04/08 01:17:20;;;;;;;;;;;;;;;;;;4984016;28;19945;-57
2022/04/08 01:19:45;;;;;;;;;;;;;;;;;;4977358;28;20093;-57
2022/04/08 01:22:11;;;;;;;;;;;;;;;;;;4974894;28;19935;-57
2022/04/08 01:24:39;;;;;;;;;;;;;;;;;;4983265;28;20194;-57
2022/04/08 01:27:05;;;;;;;;;;;;;;;;;;4986755;28;19918;-57
2022/04/08 01:29:30;;;;;;;;;;;;;;;;;;4989576;28;19920;-57
2022/04/08 01:31:55;;;;;;;;;;;;;;;;;;4983924;28;19910;-57
2022/04/08 01:34:21;;;;;;;;;;;;;;;;;;4985184;28;20358;-57
2022/04/08 01:36:46;;;;;;;;;;;;;;;;;;4975225;28;19921;-57
2022/04/08 01:39:11;;;;;;;;;;;;;;;;;;4986446;28;19920;-57
2022/04/08 01:41:37;;;;;;;;;;;;;;;;;;4980813;28;19952;-57
2022/04/08 01:44:02;;;;;;;;;;;;;;;;;;4981867;28;20374;-57
2022/04/08 01:46:27;;;;;;;;;;;;;;;;;;4981480;28;20500;-57
2022/04/08 01:48:54;;;;;;;;;;;;;;;;;;4979600;28;19922;-58
2022/04/08 01:51:20;;;;;;;;;;;;;;;;;;4980689;28;19979;-58
2022/04/08 01:53:45;;;;;;;;;;;;;;;;;;4982401;28;19918;-57
2022/04/08 01:56:11;;;;;;;;;;;;;;;;;;4988696;28;19997;-58
2022/04/08 01:58:37;;;;;;;;;;;;;;;;;;4972752;28;19914;-57
2022/04/08 02:01:02;;;;;;;;;;;;;;;;;;4974486;28;20383;-57
2022/04/08 02:03:28;;;;;;;;;;;;;;;;;;4987461;28;19967;-58
2022/04/08 02:05:53;;;;;;;;;;;;;;;;;;4986500;28;19917;-57
2022/04/08 02:08:18;;;;;;;;;;;;;;;;;;4986873;28;20407;-57
2022/04/08 02:10:43;;;;;;;;;;;;;;;;;;4986106;28;19932;-57
2022/04/08 02:13:09;;;;;;;;;;;;;;;;;;4983143;28;20290;-57
2022/04/08 02:15:34;;;;;;;;;;;;;;;;;;4982514;28;20298;-58
2022/04/08 02:18:03;;;;;;;;;;;;;;;;;;4982780;28;20009;-57
2022/04/08 02:20:31;;;;;;;;;;;;;;;;;;4979143;28;20282;-58
2022/04/08 02:22:57;;;;;;;;;;;;;;;;;;4981647;28;19913;-58
2022/04/08 02:25:22;;;;;;;;;;;;;;;;;;4983558;28;19917;-57
2022/04/08 02:27:48;;;;;;;;;;;;;;;;;;4986687;28;19914;-57
2022/04/08 02:30:13;;;;;;;;;;;;;;;;;;4979078;28;19918;-57
2022/04/08 02:32:38;;;;;;;;;;;;;;;;;;4980933;28;20265;-57
2022/04/08 02:35:04;;;;;;;;;;;;;;;;;;4979180;28;19921;-57
2022/04/08 02:37:29;;;;;;;;;;;;;;;;;;4988659;28;19917;-58
2022/04/08 02:39:55;;;;;;;;;;;;;;;;;;4980952;28;19928;-57
2022/04/08 02:42:20;;;;;;;;;;;;;;;;;;4985720;28;19921;-58
2022/04/08 02:44:45;;;;;;;;;;;;;;;;;;4970677;28;19932;-58
2022/04/08 02:47:11;;;;;;;;;;;;;;;;;;4980870;28;20004;-57
2022/04/08 02:49:37;;;;;;;;;;;;;;;;;;4980326;28;20032;-58
2022/04/08 02:52:02;;;;;;;;;;;;;;;;;;4982720;28;19993;-57
2022/04/08 02:54:27;;;;;;;;;;;;;;;;;;4982422;28;19918;-58
2022/04/08 02:56:52;;;;;;;;;;;;;;;;;;4987630;28;19914;-57
2022/04/08 02:59:18;;;;;;;;;;;;;;;;;;4983248;28;19918;-57
2022/04/08 03:01:43;;;;;;;;;;;;;;;;;;4988312;28;20000;-57
2022/04/08 03:04:09;;;;;;;;;;;;;;;;;;4981312;28;19913;-57
2022/04/08 03:06:35;;;;;;;;;;;;;;;;;;4989319;28;20324;-57
2022/04/08 03:09:00;;;;;;;;;;;;;;;;;;4988622;28;19933;-57
2022/04/08 03:11:26;;;;;;;;;;;;;;;;;;4979133;28;19914;-58
2022/04/08 03:13:51;;;;;;;;;;;;;;;;;;4982192;28;20372;-58
2022/04/08 03:16:16;;;;;;;;;;;;;;;;;;4986658;28;20025;-57
2022/04/08 03:18:42;;;;;;;;;;;;;;;;;;4984095;28;19949;-58
2022/04/08 03:21:07;;;;;;;;;;;;;;;;;;4985737;28;19921;-58
2022/04/08 03:23:32;;;;;;;;;;;;;;;;;;4988645;28;19922;-58
2022/04/08 03:25:58;;;;;;;;;;;;;;;;;;4975233;28;20368;-57
2022/04/08 03:28:23;;;;;;;;;;;;;;;;;;4982158;28;19913;-58
2022/04/08 03:30:48;;;;;;;;;;;;;;;;;;4984606;28;20395;-57
2022/04/08 03:33:13;;;;;;;;;;;;;;;;;;4980635;28;19921;-58
2022/04/08 03:35:39;;;;;;;;;;;;;;;;;;4982889;28;20291;-57
2022/04/08 03:38:04;;;;;;;;;;;;;;;;;;4978606;28;19953;-57
2022/04/08 03:40:30;;;;;;;;;;;;;;;;;;4985449;28;19913;-58
2022/04/08 03:42:55;;;;;;;;;;;;;;;;;;4982503;28;19914;-59
2022/04/08 03:45:21;;;;;;;;;;;;;;;;;;4975825;28;20403;-59
2022/04/08 03:47:46;;;;;;;;;;;;;;;;;;4977371;28;19914;-58
2022/04/08 03:50:12;;;;;;;;;;;;;;;;;;4980084;28;20350;-59
2022/04/08 03:52:37;;;;;;;;;;;;;;;;;;4985105;28;19941;-58
2022/04/08 03:55:02;;;;;;;;;;;;;;;;;;4985335;28;20414;-59
2022/04/08 03:57:28;;;;;;;;;;;;;;;;;;4974719;28;20306;-58
2022/04/08 03:59:54;;;;;;;;;;;;;;;;;;4984528;28;19969;-58
2022/04/08 04:02:20;;;;;;;;;;;;;;;;;;4973476;28;19914;-58
2022/04/08 04:04:45;;;;;;;;;;;;;;;;;;4976278;28;19921;-58
2022/04/08 04:07:10;;;;;;;;;;;;;;;;;;4982989;28;19918;-58
2022/04/08 04:09:36;;;;;;;;;;;;;;;;;;4978963;28;19914;-58
2022/04/08 04:12:01;;;;;;;;;;;;;;;;;;4980735;28;19914;-58
2022/04/08 04:14:26;;;;;;;;;;;;;;;;;;4983182;28;19924;-58
2022/04/08 04:16:52;;;;;;;;;;;;;;;;;;4982494;28;20001;-57
2022/04/08 04:19:18;;;;;;;;;;;;;;;;;;4982135;28;20043;-57
2022/04/08 04:21:44;;;;;;;;;;;;;;;;;;4978055;28;20077;-57
2022/04/08 04:24:09;;;;;;;;;;;;;;;;;;4977084;28;20435;-57
2022/04/08 04:26:34;;;;;;;;;;;;;;;;;;4982636;28;20009;-58
2022/04/08 04:28:59;;;;;;;;;;;;;;;;;;4986886;28;20350;-58
2022/04/08 04:31:25;;;;;;;;;;;;;;;;;;4989959;28;19960;-57
2022/04/08 04:33:50;;;;;;;;;;;;;;;;;;4985969;28;20350;-58
2022/04/08 04:36:15;;;;;;;;;;;;;;;;;;4977267;28;19968;-57
2022/04/08 04:38:41;;;;;;;;;;;;;;;;;;4977696;28;19914;-58
2022/04/08 04:41:06;;;;;;;;;;;;;;;;;;4974800;28;19913;-57
2022/04/08 04:43:31;;;;;;;;;;;;;;;;;;4989095;28;20543;-57
2022/04/08 04:45:57;;;;;;;;;;;;;;;;;;4980927;28;19989;-58
2022/04/08 04:48:22;;;;;;;;;;;;;;;;;;4986394;28;19914;-58
2022/04/08 04:50:48;;;;;;;;;;;;;;;;;;4981234;28;20304;-58
2022/04/08 04:53:13;;;;;;;;;;;;;;;;;;4985483;28;19914;-58
2022/04/08 04:55:38;;;;;;;;;;;;;;;;;;4983624;28;19913;-58
2022/04/08 04:58:04;;;;;;;;;;;;;;;;;;4988701;28;20312;-58
2022/04/08 05:00:29;;;;;;;;;;;;;;;;;;4976149;28;20291;-58
2022/04/08 05:02:54;;;;;;;;;;;;;;;;;;4981084;28;19932;-57
2022/04/08 05:05:20;;;;;;;;;;;;;;;;;;4983265;28;20377;-57
2022/04/08 05:07:45;;;;;;;;;;;;;;;;;;4991473;28;19928;-58
2022/04/08 05:10:11;;;;;;;;;;;;;;;;;;4983029;28;20447;-61
2022/04/08 05:12:36;;;;;;;;;;;;;;;;;;4981280;28;19941;-61
2022/04/08 05:15:09;;;;;;;;;;;;;;;;;;4985616;28;19921;-61
2022/04/08 05:17:35;;;;;;;;;;;;;;;;;;4982353;28;19914;-60
2022/04/08 05:20:04;;;;;;;;;;;;;;;;;;4979977;28;19924;-61
2022/04/08 05:22:29;;;;;;;;;;;;;;;;;;4986802;28;19936;-61
2022/04/08 05:24:54;;;;;;;;;;;;;;;;;;4997154;28;20656;-61
2022/04/08 05:27:20;;;;;;;;;;;;;;;;;;4984849;28;20019;-61
2022/04/08 05:29:45;;;;;;;;;;;;;;;;;;4989885;28;20309;-61
2022/04/08 05:32:10;;;;;;;;;;;;;;;;;;4981649;28;19953;-61
2022/04/08 05:34:35;;;;;;;;;;;;;;;;;;4984336;28;19918;-60
2022/04/08 05:37:01;;;;;;;;;;;;;;;;;;4981115;28;20384;-60
2022/04/08 05:39:26;;;;;;;;;;;;;;;;;;4979098;28;19917;-60
2022/04/08 05:41:51;;;;;;;;;;;;;;;;;;4979806;28;19914;-61
2022/04/08 05:44:17;;;;;;;;;;;;;;;;;;4976323;28;19917;-61
2022/04/08 05:46:43;;;;;;;;;;;;;;;;;;4981984;28;20009;-60
2022/04/08 05:49:09;;;;;;;;;;;;;;;;;;4983576;28;19949;-61
2022/04/08 05:51:34;;;;;;;;;;;;;;;;;;4983036;28;19953;-61
2022/04/08 05:53:59;;;;;;;;;;;;;;;;;;4985183;28;19944;-62
2022/04/08 05:56:25;;;;;;;;;;;;;;;;;;4990751;28;20008;-62
2022/04/08 05:58:50;;;;;;;;;;;;;;;;;;4983382;28;19924;-62
2022/04/08 06:01:15;;;;;;;;;;;;;;;;;;4977980;28;19918;-60
2022/04/08 06:03:40;;;;;;;;;;;;;;;;;;4972558;28;19956;-60
2022/04/08 06:06:06;;;;;;;;;;;;;;;;;;4981544;28;19929;-61
2022/04/08 06:08:31;;;;;;;;;;;;;;;;;;4974947;28;19961;-60
2022/04/08 06:10:57;;;;;;;;;;;;;;;;;;4977103;28;19918;-61
2022/04/08 06:13:25;;;;;;;;;;;;;;;;;;4985981;28;19972;-62
2022/04/08 06:15:51;;;;;;;;;;;;;;;;;;4984882;28;20024;-60
2022/04/08 06:18:18;;;;;;;;;;;;;;;;;;4979107;28;19918;-57
2022/04/08 06:20:43;;;;;;;;;;;;;;;;;;4979279;28;19922;-61
2022/04/08 06:23:09;;;;;;;;;;;;;;;;;;4981261;28;20277;-62
2022/04/08 06:25:34;;;;;;;;;;;;;;;;;;4969563;28;19914;-60
2022/04/08 06:28:04;;;;;;;;;;;;;;;;;;4975512;28;19914;-61
2022/04/08 06:30:30;;;;;;;;;;;;;;;;;;4982080;28;19967;-62
2022/04/08 06:32:55;;;;;;;;;;;;;;;;;;4976403;28;19918;-62
2022/04/08 06:35:21;;;;;;;;;;;;;;;;;;4978882;28;19973;-61
2022/04/08 06:37:46;;;;;;;;;;;;;;;;;;4976785;28;19921;-61
2022/04/08 06:40:12;;;;;;;;;;;;;;;;;;4978324;28;20008;-61
2022/04/08 06:42:38;;;;;;;;;;;;;;;;;;4971926;28;19957;-61
2022/04/08 06:45:04;;;;;;;;;;;;;;;;;;4975304;28;20321;-61
2022/04/08 06:47:29;;;;;;;;;;;;;;;;;;4974635;28;19925;-60
2022/04/08 06:49:56;;;;;;;;;;;;;;;;;;4980847;28;19973;-62
2022/04/08 06:52:21;;;;;;;;;;;;;;;;;;4979459;28;19914;-60
2022/04/08 06:54:47;;;;;;;;;;;;;;;;;;4980180;28;19921;-61
2022/04/08 06:57:12;;;;;;;;;;;;;;;;;;4989386;28;19921;-62
2022/04/08 06:59:39;;;;;;;;;;;;;;;;;;4972464;28;19925;-62
2022/04/08 07:02:04;;;;;;;;;;;;;;;;;;4977908;28;20000;-62
2022/04/08 07:04:30;;;;;;;;;;;;;;;;;;4975773;28;19910;-62
2022/04/08 07:06:56;;;;;;;;;;;;;;;;;;4987130;28;19918;-62
2022/04/08 07:09:21;;;;;;;;;;;;;;;;;;4985232;28;19921;-62
2022/04/08 07:11:47;;;;;;;;;;;;;;;;;;4987140;28;19909;-62
2022/04/08 07:14:12;;;;;;;;;;;;;;;;;;4977067;28;19925;-62
2022/04/08 07:16:38;;;;;;;;;;;;;;;;;;4974857;28;19918;-62
2022/04/08 07:19:03;;;;;;;;;;;;;;;;;;4969823;28;19950;-62
2022/04/08 07:21:28;;;;;;;;;;;;;;;;;;4971592;28;19953;-62
2022/04/08 07:23:54;;;;;;;;;;;;;;;;;;4981799;28;19914;-62
2022/04/08 07:26:21;;;;;;;;;;;;;;;;;;4982598;28;19922;-62
2022/04/08 07:28:46;;;;;;;;;;;;;;;;;;4975499;28;19984;-62
2022/04/08 07:31:12;;;;;;;;;;;;;;;;;;4978459;28;19914;-62
2022/04/08 07:33:37;;;;;;;;;;;;;;;;;;4984812;28;19918;-61
2022/04/08 07:36:04;;;;;;;;;;;;;;;;;;4983341;28;20343;-62
2022/04/08 07:38:30;;;;;;;;;;;;;;;;;;4977365;28;20407;-62
2022/04/08 07:40:57;;;;;;;;;;;;;;;;;;4973413;28;19997;-62
2022/04/08 07:43:22;;;;;;;;;;;;;;;;;;4979803;28;20371;-62
2022/04/08 07:45:48;;;;;;;;;;;;;;;;;;4975158;28;19968;-62
2022/04/08 07:48:13;;;;;;;;;;;;;;;;;;4981216;28;19917;-61
2022/04/08 07:50:39;;;;;;;;;;;;;;;;;;4968471;28;20544;-62
2022/04/08 07:53:05;;;;;;;;;;;;;;;;;;4983713;28;19914;-61
2022/04/08 07:55:31;;;;;;;;;;;;;;;;;;4979038;28;20331;-62
2022/04/08 07:57:57;;;;;;;;;;;;;;;;;;4979217;28;20000;-62
2022/04/08 08:00:25;;;;;;;;;;;;;;;;;;4971073;28;19924;-61
2022/04/08 08:02:51;;;;;;;;;;;;;;;;;;4982509;28;19922;-61
2022/04/08 08:05:17;;;;;;;;;;;;;;;;;;4988073;28;20400;-60
2022/04/08 08:07:43;;;;;;;;;;;;;;;;;;4985117;28;19933;-61
2022/04/08 08:10:08;;;;;;;;;;;;;;;;;;4982561;28;19914;-61
2022/04/08 08:12:33;;;;;;;;;;;;;;;;;;4988930;28;20073;-61
2022/04/08 08:14:58;;;;;;;;;;;;;;;;;;4986876;28;19921;-61
2022/04/08 08:17:24;;;;;;;;;;;;;;;;;;4984914;28;19917;-62
2022/04/08 08:19:49;;;;;;;;;;;;;;;;;;4985668;28;20364;-62
2022/04/08 08:22:14;;;;;;;;;;;;;;;;;;4977773;28;20244;-61
2022/04/08 08:24:40;;;;;;;;;;;;;;;;;;4979694;28;19919;-62
2022/04/08 08:27:06;;;;;;;;;;;;;;;;;;4977822;28;20361;-62
2022/04/08 08:29:31;;;;;;;;;;;;;;;;;;4976956;28;19968;-61
2022/04/08 08:31:57;;;;;;;;;;;;;;;;;;4985425;28;19918;-61
2022/04/08 08:34:22;;;;;;;;;;;;;;;;;;4985907;28;20320;-61
2022/04/08 08:36:47;;;;;;;;;;;;;;;;;;4986129;28;19913;-61
2022/04/08 08:39:13;;;;;;;;;;;;;;;;;;4984921;28;19924;-61
2022/04/08 08:41:38;;;;;;;;;;;;;;;;;;4981136;28;19917;-61
2022/04/08 08:44:03;;;;;;;;;;;;;;;;;;4982716;28;19957;-61
2022/04/08 08:46:32;;;;;;;;;;;;;;;;;;4986679;28;20334;-61
2022/04/08 08:48:57;;;;;;;;;;;;;;;;;;4973433;28;20089;-61
2022/04/08 08:51:22;;;;;;;;;;;;;;;;;;4983551;28;20012;-61
2022/04/08 08:53:47;;;;;;;;;;;;;;;;;;4975230;28;20311;-61
2022/04/08 08:56:14;;;;;;;;;;;;;;;;;;4987708;28;19917;-61
2022/04/08 08:58:41;;;;;;;;;;;;;;;;;;4982504;28;19917;-61
2022/04/08 09:01:09;;;;;;;;;;;;;;;;;;4977367;28;19914;-60
2022/04/08 09:03:34;;;;;;;;;;;;;;;;;;4980924;28;20005;-61
2022/04/08 09:06:06;;;;;;;;;;;;;;;;;;4975695;28;20014;-61
2022/04/08 09:08:33;;;;;;;;;;;;;;;;;;4979599;28;20447;-61
2022/04/08 09:10:58;;;;;;;;;;;;;;;;;;4981549;28;19984;-61
2022/04/08 09:13:24;;;;;;;;;;;;;;;;;;4977839;28;20367;-61
2022/04/08 09:16:07;;;;;;;;;;;;;;;;;;4976460;28;19914;-61
2022/04/08 09:18:36;;;;;;;;;;;;;;;;;;4978575;28;19914;-60
2022/04/08 09:21:01;;;;;;;;;;;;;;;;;;4972139;28;19990;-61
2022/04/08 09:23:28;;;;;;;;;;;;;;;;;;4973823;28;19997;-60
2022/04/08 09:26:03;;;;;;;;;;;;;;;;;;4978326;28;19976;-60
2022/04/08 09:28:40;;;;;;;;;;;;;;;;;;4977884;28;20276;-60
2022/04/08 09:31:06;;;;;;;;;;;;;;;;;;4978198;28;19917;-60
2022/04/08 09:33:31;;;;;;;;;;;;;;;;;;4978145;28;20110;-60
2022/04/08 09:35:58;;;;;;;;;;;;;;;;;;4975416;28;19936;-60
2022/04/08 09:38:27;;;;;;;;;;;;;;;;;;4975042;28;19960;-60
2022/04/08 09:41:03;;;;;;;;;;;;;;;;;;4973601;28;19914;-60
2022/04/08 09:43:33;;;;;;;;;;;;;;;;;;4979614;28;19918;-60
2022/04/08 09:46:12;;;;;;;;;;;;;;;;;;4975212;28;20013;-61
2022/04/08 09:48:38;;;;;;;;;;;;;;;;;;4976288;28;20299;-60
2022/04/08 09:51:05;;;;;;;;;;;;;;;;;;4978844;28;19929;-61
2022/04/08 09:53:30;;;;;;;;;;;;;;;;;;4980896;28;19914;-61
2022/04/08 09:55:56;;;;;;;;;;;;;;;;;;4984337;28;20004;-61
2022/04/08 09:58:23;;;;;;;;;;;;;;;;;;4983452;28;19917;-61
2022/04/08 10:00:49;;;;;;;;;;;;;;;;;;4969717;28;20488;-61
2022/04/08 10:03:14;;;;;;;;;;;;;;;;;;4979666;28;19922;-61
2022/04/08 10:05:40;;;;;;;;;;;;;;;;;;4987444;28;19914;-61
2022/04/08 10:08:05;;;;;;;;;;;;;;;;;;4981192;28;20077;-61
2022/04/08 10:10:40;;;;;;;;;;;;;;;;;;4978416;28;19914;-61
2022/04/08 10:13:05;;;;;;;;;;;;;;;;;;4976664;28;20406;-61
2022/04/08 10:15:30;;;;;;;;;;;;;;;;;;4986678;28;19914;-61
2022/04/08 10:17:57;;;;;;;;;;;;;;;;;;4984086;28;19914;-61
2022/04/08 10:20:23;;;;;;;;;;;;;;;;;;4979472;28;20363;-61
2022/04/08 10:22:48;;;;;;;;;;;;;;;;;;4977305;28;20018;-62
2022/04/08 10:25:15;;;;;;;;;;;;;;;;;;4978234;28;20026;-61
2022/04/08 10:27:43;;;;;;;;;;;;;;;;;;4976937;28;19962;-61
2022/04/08 10:30:12;;;;;;;;;;;;;;;;;;4975626;28;19914;-61
2022/04/08 10:32:38;;;;;;;;;;;;;;;;;;4984655;28;20000;-61
2022/04/08 10:35:19;;;;;;;;;;;;;;;;;;4980408;28;20505;-62
2022/04/08 10:38:04;;;;;;;;;;;;;;;;;;4972393;28;20073;-62
2022/04/08 10:40:40;;;;;;;;;;;;;;;;;;4977669;28;19957;-62
2022/04/08 10:43:09;;;;;;;;;;;;;;;;;;4976210;28;19913;-62
2022/04/08 10:45:35;;;;;;;;;;;;;;;;;;4980185;28;20102;-62
2022/04/08 10:48:01;;;;;;;;;;;;;;;;;;4980551;28;19971;-62
2022/04/08 10:50:30;;;;;;;;;;;;;;;;;;4970782;28;19918;-62
2022/04/08 10:53:22;;;;;;;;;;;;;;;;;;4977741;28;19914;-62
2022/04/08 10:55:53;;;;;;;;;;;;;;;;;;4970851;28;20012;-62
2022/04/08 10:58:35;;;;;;;;;;;;;;;;;;4981567;28;19921;-62
2022/04/08 11:01:12;;;;;;;;;;;;;;;;;;4972089;28;19914;-62
2022/04/08 11:03:41;;;;;;;;;;;;;;;;;;4973006;28;20435;-62
2022/04/08 11:06:07;;;;;;;;;;;;;;;;;;4973331;28;20360;-62
2022/04/08 11:08:33;;;;;;;;;;;;;;;;;;4977212;28;19977;-62
2022/04/08 11:10:58;;;;;;;;;;;;;;;;;;4974278;28;20368;-62
2022/04/08 11:13:24;;;;;;;;;;;;;;;;;;4975141;28;19914;-62
2022/04/08 11:15:49;;;;;;;;;;;;;;;;;;4974902;28;19922;-62
2022/04/08 11:18:14;;;;;;;;;;;;;;;;;;4979200;28;19925;-63
2022/04/08 11:20:40;;;;;;;;;;;;;;;;;;4969569;28;19914;-62
2022/04/08 11:23:05;;;;;;;;;;;;;;;;;;4970437;28;20387;-62
2022/04/08 11:25:30;;;;;;;;;;;;;;;;;;4970076;28;19910;-62
2022/04/08 11:27:59;;;;;;;;;;;;;;;;;;4974303;28;20016;-62
2022/04/08 11:42:25;;;;;;;;;;;;;;;;;;5001665;28;19925;-78
2022/04/08 11:44:54;;;;;;;;;;;;;;;;;;5013021;28;19975;-77
2022/04/08 11:47:28;;;;;;;;;;;;;;;;;;5005508;28;19925;-76
2022/04/08 11:50:04;;;;;;;;;;;;;;;;;;5006691;28;19925;-76
2022/04/08 11:52:29;;;;;;;;;;;;;;;;;;5004925;28;19909;-77
2022/04/08 11:55:01;;;;;;;;;;;;;;;;;;5014506;28;19955;-79
2022/04/08 11:57:27;;;;;;;;;;;;;;;;;;5014156;28;20438;-79
2022/04/08 11:59:53;;;;;;;;;;;;;;;;;;5013830;28;20043;-77
2022/04/08 12:02:19;;;;;;;;;;;;;;;;;;5013049;28;20012;-77
2022/04/08 12:04:44;;;;;;;;;;;;;;;;;;5013201;28;19916;-77
2022/04/08 12:07:20;;;;;;;;;;;;;;;;;;5014608;28;19918;-78
2022/04/08 12:09:45;;;;;;;;;;;;;;;;;;5021986;28;20023;-77
2022/04/08 12:12:10;;;;;;;;;;;;;;;;;;5013405;28;20260;-76
2022/04/08 12:14:40;;;;;;;;;;;;;;;;;;5008317;28;19913;-77
2022/04/08 12:17:05;;;;;;;;;;;;;;;;;;5008524;28;20291;-79
2022/04/08 12:19:38;;;;;;;;;;;;;;;;;;5013687;28;19909;-77
2022/04/08 12:22:17;;;;;;;;;;;;;;;;;;5009879;28;19924;-76
2022/04/08 12:24:43;;;;;;;;;;;;;;;;;;5008824;28;19913;-75
2022/04/08 12:27:19;;;;;;;;;;;;;;;;;;5010752;28;19924;-76
2022/04/08 12:29:46;;;;;;;;;;;;;;;;;;5018590;28;19937;-77
2022/04/08 12:32:17;;;;;;;;;;;;;;;;;;5030522;28;19910;-76
2022/04/08 12:34:42;;;;;;;;;;;;;;;;;;5010398;28;20403;-75
2022/04/08 12:37:08;;;;;;;;;;;;;;;;;;5009941;28;19917;-76
2022/04/08 12:39:34;;;;;;;;;;;;;;;;;;5023190;28;19958;-77
2022/04/08 12:42:00;;;;;;;;;;;;;;;;;;5012177;28;20000;-78
2022/04/08 12:44:25;;;;;;;;;;;;;;;;;;5014672;28;19984;-76
2022/04/08 12:46:51;;;;;;;;;;;;;;;;;;5006272;28;20391;-76
2022/04/08 12:49:19;;;;;;;;;;;;;;;;;;5023166;28;20047;-76
2022/04/08 12:51:44;;;;;;;;;;;;;;;;;;5010435;28;20745;-75
2022/04/08 12:54:11;;;;;;;;;;;;;;;;;;5019286;28;19913;-76
2022/04/08 12:56:37;;;;;;;;;;;;;;;;;;5019652;28;19921;-76
2022/04/08 12:59:02;;;;;;;;;;;;;;;;;;5035698;28;19971;-77
2022/04/08 13:01:28;;;;;;;;;;;;;;;;;;5022726;28;19913;-76
2022/04/08 13:03:54;;;;;;;;;;;;;;;;;;5011986;28;19913;-77
2022/04/08 13:06:19;;;;;;;;;;;;;;;;;;5004605;28;19917;-76
2022/04/08 13:08:44;;;;;;;;;;;;;;;;;;5009410;28;20008;-76
2022/04/08 13:11:10;;;;;;;;;;;;;;;;;;5002292;28;19913;-76
2022/04/08 13:13:35;;;;;;;;;;;;;;;;;;5002134;28;19913;-76
2022/04/08 13:16:01;;;;;;;;;;;;;;;;;;5001453;28;19917;-76
2022/04/08 13:18:26;;;;;;;;;;;;;;;;;;5000019;28;19910;-76
2022/04/08 13:20:51;;;;;;;;;;;;;;;;;;5000921;28;19917;-76
2022/04/08 13:23:17;;;;;;;;;;;;;;;;;;5000359;28;20307;-76
2022/04/08 13:25:44;;;;;;;;;;;;;;;;;;5012807;28;19974;-77
2022/04/08 13:28:13;;;;;;;;;;;;;;;;;;5014301;28;19941;-77
2022/04/08 13:30:39;;;;;;;;;;;;;;;;;;5007784;28;20056;-76
2022/04/08 13:33:05;;;;;;;;;;;;;;;;;;5004306;28;19924;-76
2022/04/08 13:35:32;;;;;;;;;;;;;;;;;;4998647;28;19918;-76
2022/04/08 13:37:58;;;;;;;;;;;;;;;;;;4998733;28;20002;-76
2022/04/08 13:40:23;;;;;;;;;;;;;;;;;;4998387;28;19969;-76
2022/04/08 13:42:49;;;;;;;;;;;;;;;;;;4997820;28;20382;-77
2022/04/08 13:45:14;;;;;;;;;;;;;;;;;;5003568;28;19924;-76
2022/04/08 13:47:40;;;;;;;;;;;;;;;;;;5005010;28;19925;-77
2022/04/08 13:50:05;;;;;;;;;;;;;;;;;;5011880;28;20490;-76
2022/04/08 13:52:31;;;;;;;;;;;;;;;;;;4996827;28;19964;-76
2022/04/08 13:54:57;;;;;;;;;;;;;;;;;;5001226;28;20186;-77
2022/04/08 13:57:22;;;;;;;;;;;;;;;;;;5005738;28;19917;-78
2022/04/08 13:59:50;;;;;;;;;;;;;;;;;;5000040;28;20476;-77
2022/04/08 14:02:15;;;;;;;;;;;;;;;;;;4998862;28;20039;-77
2022/04/08 14:04:41;;;;;;;;;;;;;;;;;;4998299;28;20047;-77
2022/04/08 14:07:07;;;;;;;;;;;;;;;;;;5011757;28;19917;-77
2022/04/08 14:09:32;;;;;;;;;;;;;;;;;;5000658;28;19960;-77
2022/04/08 14:11:57;;;;;;;;;;;;;;;;;;5000529;28;19914;-78
2022/04/08 14:14:23;;;;;;;;;;;;;;;;;;5004115;28;20338;-77
2022/04/08 14:16:48;;;;;;;;;;;;;;;;;;5005545;28;19919;-77
2022/04/08 14:19:16;;;;;;;;;;;;;;;;;;5002352;28;19913;-76
2022/04/08 14:21:43;;;;;;;;;;;;;;;;;;5001014;28;19928;-77
2022/04/08 14:24:08;;;;;;;;;;;;;;;;;;4998719;28;19925;-75
2022/04/08 14:26:34;;;;;;;;;;;;;;;;;;4999941;28;20375;-76
2022/04/08 14:28:59;;;;;;;;;;;;;;;;;;5004583;28;19983;-76
2022/04/08 14:31:25;;;;;;;;;;;;;;;;;;4997430;28;19913;-77
2022/04/08 14:33:52;;;;;;;;;;;;;;;;;;4993556;28;20291;-76
2022/04/08 14:36:20;;;;;;;;;;;;;;;;;;4994459;28;19992;-75
2022/04/08 14:38:45;;;;;;;;;;;;;;;;;;4995297;28;20586;-75
2022/04/08 14:41:11;;;;;;;;;;;;;;;;;;4994245;28;19956;-77
2022/04/08 14:43:36;;;;;;;;;;;;;;;;;;4999240;28;19962;-77
2022/04/08 14:46:03;;;;;;;;;;;;;;;;;;4996596;28;19963;-76
2022/04/08 14:48:29;;;;;;;;;;;;;;;;;;5005565;28;19925;-77
2022/04/08 14:50:54;;;;;;;;;;;;;;;;;;5000420;28;19967;-76
2022/04/08 14:53:20;;;;;;;;;;;;;;;;;;4998753;28;20363;-76
2022/04/08 14:55:45;;;;;;;;;;;;;;;;;;5022172;28;19909;-77
2022/04/08 14:58:11;;;;;;;;;;;;;;;;;;4997439;28;19936;-77
2022/04/08 15:00:36;;;;;;;;;;;;;;;;;;5015750;28;19914;-78
2022/04/08 15:03:04;;;;;;;;;;;;;;;;;;5002365;28;20410;-77
2022/04/08 15:05:30;;;;;;;;;;;;;;;;;;5014996;28;19924;-77
2022/04/08 15:07:55;;;;;;;;;;;;;;;;;;5012806;28;19917;-77
2022/04/08 15:10:20;;;;;;;;;;;;;;;;;;4999402;28;19914;-77
2022/04/08 15:12:46;;;;;;;;;;;;;;;;;;4999570;28;19914;-76
2022/04/08 15:15:11;;;;;;;;;;;;;;;;;;4997206;28;19914;-76
2022/04/08 15:17:37;;;;;;;;;;;;;;;;;;4999337;28;19921;-75
2022/04/08 15:20:02;;;;;;;;;;;;;;;;;;5018610;28;19910;-77
2022/04/08 15:22:28;;;;;;;;;;;;;;;;;;5006456;28;20346;-76
2022/04/08 15:24:53;;;;;;;;;;;;;;;;;;4999999;28;19952;-76
2022/04/08 15:27:19;;;;;;;;;;;;;;;;;;5000657;28;19918;-76
2022/04/08 15:29:44;;;;;;;;;;;;;;;;;;5002352;28;19913;-77
2022/04/08 15:32:12;;;;;;;;;;;;;;;;;;4998439;28;19920;-76
2022/04/08 15:34:40;;;;;;;;;;;;;;;;;;5001300;28;19914;-76
2022/04/08 15:37:08;;;;;;;;;;;;;;;;;;5008786;28;20404;-76
2022/04/08 15:39:34;;;;;;;;;;;;;;;;;;4999026;28;20005;-76
2022/04/08 15:41:59;;;;;;;;;;;;;;;;;;4995432;28;20004;-75
2022/04/08 15:44:24;;;;;;;;;;;;;;;;;;4999487;28;19917;-74
2022/04/08 15:46:52;;;;;;;;;;;;;;;;;;4997436;28;19964;-75
2022/04/08 15:49:17;;;;;;;;;;;;;;;;;;4999785;28;19975;-76
2022/04/08 15:51:42;;;;;;;;;;;;;;;;;;5004196;28;20016;-77
2022/04/08 15:54:08;;;;;;;;;;;;;;;;;;5008254;28;20305;-76
2022/04/08 15:56:37;;;;;;;;;;;;;;;;;;5006418;28;20526;-76
2022/04/08 15:59:02;;;;;;;;;;;;;;;;;;5005166;28;19918;-76
2022/04/08 16:01:27;;;;;;;;;;;;;;;;;;5001459;28;20421;-77
2022/04/08 16:03:53;;;;;;;;;;;;;;;;;;5006866;28;19948;-76
2022/04/08 16:06:18;;;;;;;;;;;;;;;;;;5007405;28;20287;-76
2022/04/08 16:08:43;;;;;;;;;;;;;;;;;;5000598;28;20374;-76
2022/04/08 16:11:11;;;;;;;;;;;;;;;;;;4998973;28;19917;-76
2022/04/08 16:13:36;;;;;;;;;;;;;;;;;;4997356;28;19917;-76
2022/04/08 16:16:03;;;;;;;;;;;;;;;;;;4996742;28;19962;-76
2022/04/08 16:18:30;;;;;;;;;;;;;;;;;;5006486;28;20380;-77
2022/04/08 16:20:56;;;;;;;;;;;;;;;;;;5000903;28;19971;-77
2022/04/08 16:23:22;;;;;;;;;;;;;;;;;;5009305;28;19913;-76
2022/04/08 16:25:48;;;;;;;;;;;;;;;;;;5010916;28;19923;-75
2022/04/08 16:28:15;;;;;;;;;;;;;;;;;;5008024;28;19917;-75
2022/04/08 16:30:41;;;;;;;;;;;;;;;;;;5011837;28;19936;-75
2022/04/08 16:33:08;;;;;;;;;;;;;;;;;;5006040;28;20463;-76
2022/04/08 16:35:36;;;;;;;;;;;;;;;;;;5011628;28;19922;-77
2022/04/08 16:38:01;;;;;;;;;;;;;;;;;;5006413;28;20287;-76
2022/04/08 16:40:27;;;;;;;;;;;;;;;;;;5006689;28;19932;-77
2022/04/08 16:42:52;;;;;;;;;;;;;;;;;;5008575;28;19917;-77
2022/04/08 16:45:17;;;;;;;;;;;;;;;;;;5005677;28;19920;-77
2022/04/08 16:47:45;;;;;;;;;;;;;;;;;;5012813;28;19916;-77
2022/04/08 16:50:11;;;;;;;;;;;;;;;;;;5018973;28;19914;-78
2022/04/08 16:52:40;;;;;;;;;;;;;;;;;;5007508;28;19913;-78